createdAt,value
2019-05-19T00:01:27.668Z,97355.59
2019-05-19T00:03:54.928Z,97351.27
2019-05-19T00:06:23.019Z,97357.17
2019-05-19T00:08:50.289Z,97352.70
2019-05-19T00:11:17.658Z,97355.91
2019-05-19T00:13:45.414Z,97339.53
2019-05-19T00:17:57.412Z,97351.67
2019-05-19T00:20:24.998Z,97358.28
2019-05-19T00:22:52.963Z,97356.45
2019-05-19T00:25:20.208Z,97352.70
2019-05-19T00:27:47.863Z,97345.06
2019-05-19T00:30:15.858Z,97342.84
2019-05-19T00:32:43.275Z,97341.89
2019-05-19T00:35:10.956Z,97343.23
2019-05-19T00:37:38.504Z,97334.34
2019-05-19T00:40:06.390Z,97331.67
2019-05-19T00:42:34.333Z,97336.31
2019-05-19T00:45:02.936Z,97333.86
2019-05-19T00:48:20.918Z,97321.81
2019-05-19T00:50:48.536Z,97330.56
2019-05-19T00:53:16.074Z,97336.77
2019-05-19T00:55:43.639Z,97322.66
2019-05-19T00:58:11.203Z,97322.66
2019-05-19T01:00:38.536Z,97333.46
2019-05-19T01:03:05.820Z,97315.11
2019-05-19T01:05:33.059Z,97315.11
2019-05-19T01:08:00.588Z,97335.11
2019-05-19T01:10:28.162Z,97331.89
2019-05-19T01:12:55.723Z,97332.20
2019-05-19T01:15:24.112Z,97327.70
2019-05-19T01:17:52.470Z,97319.45
2019-05-19T01:20:20.249Z,97315.34
2019-05-19T01:22:48.169Z,97315.58
2019-05-19T01:25:16.489Z,97312.58
2019-05-19T01:27:44.076Z,97318.34
2019-05-19T01:30:12.117Z,97318.42
2019-05-19T01:32:39.354Z,97230.25
2019-05-19T01:35:06.709Z,97319.36
2019-05-19T01:37:34.634Z,97315.57
2019-05-19T01:40:02.294Z,97312.66
2019-05-19T01:42:36.091Z,97315.16
2019-05-19T01:45:22.480Z,97318.25
2019-05-19T01:47:50.165Z,97316.05
2019-05-19T01:50:18.618Z,97311.49
2019-05-19T01:52:46.136Z,97316.84
2019-05-19T01:55:13.404Z,97314.40
2019-05-19T01:57:40.932Z,97317.92
2019-05-19T02:00:08.510Z,97314.48
2019-05-19T02:02:35.798Z,97309.90
2019-05-19T02:05:03.521Z,97312.58
2019-05-19T02:07:30.832Z,97312.34
2019-05-19T02:09:58.712Z,97313.69
2019-05-19T02:12:25.968Z,97312.58
2019-05-19T02:14:53.525Z,97308.81
2019-05-19T02:17:20.883Z,97310.16
2019-05-19T02:19:48.891Z,97308.02
2019-05-19T02:22:16.505Z,97308.33
2019-05-19T02:24:44.065Z,97305.66
2019-05-19T02:27:11.944Z,97306.19
2019-05-19T02:29:39.319Z,97307.84
2019-05-19T02:32:07.316Z,97304.09
2019-05-19T02:34:34.565Z,97304.09
2019-05-19T02:37:01.847Z,97304.94
2019-05-19T02:39:29.061Z,97291.62
2019-05-19T02:41:56.576Z,97291.62
2019-05-19T02:44:24.206Z,97306.05
2019-05-19T02:46:51.999Z,97302.27
2019-05-19T02:49:19.277Z,97308.41
2019-05-19T02:51:46.964Z,97303.59
2019-05-19T02:54:15.207Z,97299.90
2019-05-19T02:56:42.556Z,97299.90
2019-05-19T02:59:10.457Z,97304.45
2019-05-19T03:01:57.963Z,97308.72
2019-05-19T03:04:25.275Z,97296.67
2019-05-19T03:06:52.769Z,97312.48
2019-05-19T03:09:20.011Z,97316.27
2019-05-19T03:11:47.675Z,97313.75
2019-05-19T03:14:16.704Z,97320.90
2019-05-19T03:16:43.953Z,97317.37
2019-05-19T03:19:11.282Z,97319.83
2019-05-19T03:21:38.506Z,97321.62
2019-05-19T03:25:58.446Z,97307.39
2019-05-19T03:28:25.703Z,97306.09
2019-05-19T03:31:22.381Z,97306.19
2019-05-19T03:33:50.257Z,97310.69
2019-05-19T03:36:18.179Z,97315.73
2019-05-19T03:38:45.413Z,97313.99
2019-05-19T03:41:12.715Z,97312.97
2019-05-19T03:43:40.257Z,97321.84
2019-05-19T03:46:08.171Z,97323.27
2019-05-19T03:48:35.949Z,97319.34
2019-05-19T03:51:03.632Z,97327.28
2019-05-19T03:53:30.933Z,97327.28
2019-05-19T03:55:58.471Z,97332.71
2019-05-19T03:58:25.688Z,97335.88
2019-05-19T04:00:52.933Z,97333.43
2019-05-19T04:03:21.110Z,97345.16
2019-05-19T04:05:48.678Z,97339.01
2019-05-19T04:08:16.284Z,97347.27
2019-05-19T04:10:43.779Z,97347.53
2019-05-19T04:13:11.095Z,97344.85
2019-05-19T04:15:38.684Z,97346.42
2019-05-19T04:18:05.903Z,97338.39
2019-05-19T04:20:33.188Z,97349.32
2019-05-19T04:23:01.060Z,97334.15
2019-05-19T04:25:28.291Z,97345.57
2019-05-19T04:27:55.735Z,97339.59
2019-05-19T04:30:23.289Z,97346.43
2019-05-19T04:32:50.813Z,97346.61
2019-05-19T04:35:18.351Z,97355.36
2019-05-19T04:37:46.158Z,97349.52
2019-05-19T04:40:13.435Z,97353.76
2019-05-19T04:42:40.671Z,97348.41
2019-05-19T04:45:08.468Z,97353.36
2019-05-19T04:47:36.238Z,97343.05
2019-05-19T04:50:04.402Z,97343.05
2019-05-19T04:52:32.482Z,97344.16
2019-05-19T04:55:00.091Z,97347.55
2019-05-19T04:57:27.380Z,97342.20
2019-05-19T04:59:54.932Z,97338.58
2019-05-19T05:02:22.194Z,97344.39
2019-05-19T05:04:49.782Z,97345.50
2019-05-19T05:07:17.013Z,97336.13
2019-05-19T05:09:44.277Z,97338.50
2019-05-19T05:12:11.815Z,97335.02
2019-05-19T05:14:39.133Z,97336.13
2019-05-19T05:17:06.882Z,97333.06
2019-05-19T05:19:34.081Z,97333.06
2019-05-19T05:22:01.434Z,97336.84
2019-05-19T05:24:28.843Z,97333.63
2019-05-19T05:26:56.368Z,97334.17
2019-05-19T05:29:23.694Z,97337.70
2019-05-19T05:31:51.695Z,97334.00
2019-05-19T05:34:19.350Z,97327.08
2019-05-19T05:36:46.997Z,97329.14
2019-05-19T05:39:14.597Z,97335.43
2019-05-19T05:41:42.423Z,97334.49
2019-05-19T05:44:10.190Z,97325.13
2019-05-19T05:46:38.251Z,97323.95
2019-05-19T05:49:05.575Z,97318.66
2019-05-19T05:51:32.864Z,97315.92
2019-05-19T05:54:00.360Z,97322.53
2019-05-19T05:56:27.595Z,97323.41
2019-05-19T05:58:54.888Z,97323.41
2019-05-19T06:01:22.379Z,97322.02
2019-05-19T06:03:49.883Z,97328.08
2019-05-19T06:06:17.408Z,97333.27
2019-05-19T06:08:44.672Z,97327.76
2019-05-19T06:11:11.906Z,97329.80
2019-05-19T06:13:39.542Z,97331.82
2019-05-19T06:16:06.793Z,97329.62
2019-05-19T06:18:34.794Z,97333.02
2019-05-19T06:21:02.132Z,97335.06
2019-05-19T06:23:29.386Z,97344.22
2019-05-19T06:25:57.372Z,97337.50
2019-05-19T06:28:24.772Z,97346.47
2019-05-19T06:30:52.345Z,97328.66
2019-05-19T06:33:19.858Z,97342.59
2019-05-19T06:35:47.675Z,97341.95
2019-05-19T06:38:15.268Z,97342.66
2019-05-19T06:40:42.769Z,97324.08
2019-05-19T06:43:10.348Z,97341.58
2019-05-19T06:45:38.279Z,97338.23
2019-05-19T06:48:06.311Z,97335.17
2019-05-19T06:50:33.883Z,97335.11
2019-05-19T06:53:13.343Z,97335.11
2019-05-19T06:55:31.323Z,97328.16
2019-05-19T06:57:58.908Z,97328.16
2019-05-19T07:00:26.750Z,97324.67
2019-05-19T07:02:54.023Z,97336.20
2019-05-19T07:05:21.950Z,97331.77
2019-05-19T07:07:49.496Z,97338.05
2019-05-19T07:10:16.983Z,97338.05
2019-05-19T07:12:45.049Z,97343.89
2019-05-19T07:15:13.988Z,97340.95
2019-05-19T07:17:41.267Z,97339.61
2019-05-19T07:20:08.522Z,97342.36
2019-05-19T07:22:37.609Z,97335.81
2019-05-19T07:25:05.299Z,97335.30
2019-05-19T07:27:32.566Z,97336.89
2019-05-19T07:30:00.392Z,97342.29
2019-05-19T07:32:28.387Z,97337.18
2019-05-19T07:34:56.259Z,97342.29
2019-05-19T07:37:24.541Z,97334.50
2019-05-19T07:39:52.696Z,97341.91
2019-05-19T07:42:19.917Z,97336.34
2019-05-19T07:44:47.222Z,97339.52
2019-05-19T07:47:15.193Z,97331.53
2019-05-19T07:49:42.428Z,97338.64
2019-05-19T07:52:09.733Z,97332.52
2019-05-19T07:54:37.239Z,97336.06
2019-05-19T07:57:05.920Z,97338.81
2019-05-19T07:59:34.018Z,97335.52
2019-05-19T08:02:01.248Z,97333.98
2019-05-19T08:04:28.784Z,97331.85
2019-05-19T08:06:56.252Z,97330.61
2019-05-19T08:09:23.614Z,97334.79
2019-05-19T08:11:50.821Z,97339.68
2019-05-19T08:14:19.365Z,97338.66
2019-05-19T08:16:47.482Z,97340.55
2019-05-19T08:19:15.386Z,97340.37
2019-05-19T08:21:42.951Z,97331.83
2019-05-19T08:24:10.299Z,97333.70
2019-05-19T08:26:37.973Z,97333.59
2019-05-19T08:29:06.031Z,97339.66
2019-05-19T08:31:33.624Z,97335.09
2019-05-19T08:34:01.206Z,97328.60
2019-05-19T08:36:28.721Z,97331.77
2019-05-19T08:38:58.134Z,97331.38
2019-05-19T08:41:25.666Z,97321.34
2019-05-19T08:43:53.923Z,97324.11
2019-05-19T08:46:21.151Z,97327.05
2019-05-19T08:48:48.390Z,97331.73
2019-05-19T08:51:15.600Z,97333.55
2019-05-19T08:53:42.839Z,97333.44
2019-05-19T08:56:10.057Z,97330.86
2019-05-19T08:58:37.861Z,97334.92
2019-05-19T09:01:05.177Z,97333.94
2019-05-19T09:03:32.977Z,97327.91
2019-05-19T09:06:00.187Z,97327.69
2019-05-19T09:08:27.535Z,97322.39
2019-05-19T09:10:55.348Z,97317.03
2019-05-19T09:13:23.348Z,97313.86
2019-05-19T09:15:51.109Z,97318.03
2019-05-19T09:18:18.646Z,97320.59
2019-05-19T09:20:46.100Z,97323.23
2019-05-19T09:23:13.780Z,97320.66
2019-05-19T09:25:41.585Z,97309.94
2019-05-19T09:28:09.275Z,97311.34
2019-05-19T09:30:36.827Z,97293.39
2019-05-19T09:33:04.909Z,97310.47
2019-05-19T09:35:33.071Z,97307.94
2019-05-19T09:38:00.354Z,97309.68
2019-05-19T09:43:11.321Z,97303.53
2019-05-19T09:45:38.680Z,97308.52
2019-05-19T09:48:05.919Z,97308.25
2019-05-19T09:50:33.797Z,97313.92
2019-05-19T09:53:01.059Z,97311.16
2019-05-19T09:55:28.277Z,97320.97
2019-05-19T09:57:55.502Z,97316.59
2019-05-19T10:00:23.100Z,97314.84
2019-05-19T10:02:50.972Z,97309.47
2019-05-19T10:05:18.593Z,97301.47
2019-05-19T10:07:45.818Z,97306.20
2019-05-19T10:10:15.928Z,97300.55
2019-05-19T10:12:43.791Z,97292.50
2019-05-19T10:15:11.162Z,97287.64
2019-05-19T10:17:38.557Z,97293.50
2019-05-19T10:20:06.564Z,97291.38
2019-05-19T10:22:34.097Z,97291.18
2019-05-19T10:25:20.488Z,97288.14
2019-05-19T10:27:31.255Z,97287.02
2019-05-19T10:29:58.489Z,97287.92
2019-05-19T10:32:26.169Z,97288.05
2019-05-19T10:34:54.146Z,97281.31
2019-05-19T10:37:21.963Z,97290.56
2019-05-19T10:39:49.991Z,97288.60
2019-05-19T10:42:17.209Z,97285.95
2019-05-19T10:44:45.361Z,97292.23
2019-05-19T10:47:13.134Z,97292.52
2019-05-19T10:49:43.016Z,97277.85
2019-05-19T10:52:10.577Z,97277.85
2019-05-19T10:54:38.261Z,97286.52
2019-05-19T10:57:06.175Z,97279.56
2019-05-19T10:59:33.502Z,97285.09
2019-05-19T11:02:02.674Z,97281.75
2019-05-19T11:04:29.933Z,97285.26
2019-05-19T11:06:57.119Z,97280.34
2019-05-19T11:09:24.165Z,97279.11
2019-05-19T11:11:51.287Z,97279.80
2019-05-19T11:14:18.970Z,97281.16
2019-05-19T11:16:46.310Z,97282.85
2019-05-19T11:19:13.820Z,97271.08
2019-05-19T11:21:41.322Z,97268.59
2019-05-19T11:24:08.862Z,97263.69
2019-05-19T11:26:36.097Z,97260.77
2019-05-19T11:29:03.592Z,97268.16
2019-05-19T11:31:30.943Z,97253.92
2019-05-19T11:33:58.174Z,97256.94
2019-05-19T11:36:26.284Z,97252.91
2019-05-19T11:38:54.133Z,97249.44
2019-05-19T11:41:22.317Z,97251.35
2019-05-19T11:43:50.194Z,97252.28
2019-05-19T11:46:17.383Z,97249.17
2019-05-19T11:48:45.013Z,97245.05
2019-05-19T11:51:12.505Z,97258.83
2019-05-19T11:53:40.118Z,97256.69
2019-05-19T11:56:11.188Z,97255.22
2019-05-19T11:58:36.457Z,97252.53
2019-05-19T12:01:04.015Z,97260.61
2019-05-19T12:03:31.444Z,97254.58
2019-05-19T12:05:58.948Z,97261.28
2019-05-19T12:08:26.835Z,97261.96
2019-05-19T12:10:54.074Z,97259.77
2019-05-19T12:13:22.425Z,97251.02
2019-05-19T12:15:49.937Z,97252.70
2019-05-19T12:18:17.425Z,97255.72
2019-05-19T12:20:45.621Z,97257.49
2019-05-19T12:23:13.399Z,97258.38
2019-05-19T12:25:40.789Z,97260.62
2019-05-19T12:28:08.063Z,97259.73
2019-05-19T12:30:35.654Z,97245.37
2019-05-19T12:33:03.088Z,97245.14
2019-05-19T12:35:30.407Z,97247.41
2019-05-19T12:37:57.659Z,97248.08
2019-05-19T12:40:25.165Z,97238.88
2019-05-19T12:42:52.509Z,97225.43
2019-05-19T12:45:20.072Z,97226.11
2019-05-19T12:47:47.309Z,97224.97
2019-05-19T12:50:14.803Z,97213.09
2019-05-19T12:52:42.094Z,97218.69
2019-05-19T12:55:09.518Z,97203.45
2019-05-19T12:57:36.739Z,97206.36
2019-05-19T13:00:04.587Z,97205.26
2019-05-19T13:02:32.281Z,97201.98
2019-05-19T13:05:04.852Z,97196.17
2019-05-19T13:07:29.415Z,97195.83
2019-05-19T13:09:56.892Z,97196.85
2019-05-19T13:12:48.084Z,97188.87
2019-05-19T13:15:15.751Z,97194.47
2019-05-19T13:17:43.128Z,97187.10
2019-05-19T13:20:12.794Z,97188.87
2019-05-19T13:22:40.470Z,97188.16
2019-05-19T13:25:08.152Z,97186.18
2019-05-19T13:27:35.443Z,97174.29
2019-05-19T13:30:03.678Z,97174.29
2019-05-19T13:32:32.460Z,97177.10
2019-05-19T13:35:00.133Z,97173.98
2019-05-19T13:37:28.470Z,97174.77
2019-05-19T13:39:55.731Z,97165.55
2019-05-19T13:42:23.252Z,97176.66
2019-05-19T13:44:50.672Z,97172.95
2019-05-19T13:47:18.097Z,97176.98
2019-05-19T13:49:45.449Z,97174.48
2019-05-19T13:52:15.951Z,97172.00
2019-05-19T13:54:43.882Z,97168.64
2019-05-19T13:57:12.581Z,97168.87
2019-05-19T13:59:40.241Z,97175.73
2019-05-19T14:02:08.174Z,97176.42
2019-05-19T14:04:36.179Z,97177.41
2019-05-19T14:07:04.222Z,97170.59
2019-05-19T14:09:31.815Z,97167.48
2019-05-19T14:11:59.655Z,97140.69
2019-05-19T14:14:27.521Z,97140.69
2019-05-19T14:16:54.836Z,97161.66
2019-05-19T14:19:22.495Z,97159.14
2019-05-19T14:21:50.173Z,97151.66
2019-05-19T14:24:18.827Z,97149.30
2019-05-19T14:26:46.593Z,97145.26
2019-05-19T14:29:14.172Z,97136.41
2019-05-19T14:31:42.174Z,97136.41
2019-05-19T14:34:09.829Z,97139.98
2019-05-19T14:36:37.499Z,97142.13
2019-05-19T14:39:06.205Z,97141.91
2019-05-19T14:41:38.591Z,97141.11
2019-05-19T14:44:05.968Z,97142.11
2019-05-19T14:46:33.421Z,97136.29
2019-05-19T14:49:00.930Z,97130.14
2019-05-19T14:51:28.837Z,97140.66
2019-05-19T14:53:56.453Z,97141.33
2019-05-19T14:57:43.864Z,97139.33
2019-05-19T14:59:59.855Z,97142.89
2019-05-19T15:02:27.413Z,97140.67
2019-05-19T15:04:54.613Z,97133.61
2019-05-19T15:07:21.951Z,97133.61
2019-05-19T15:09:49.206Z,97124.75
2019-05-19T15:12:16.461Z,97130.47
2019-05-19T15:14:44.083Z,97128.36
2019-05-19T15:17:11.958Z,97130.72
2019-05-19T15:19:39.208Z,97135.39
2019-05-19T15:22:06.652Z,97139.68
2019-05-19T15:24:33.971Z,97085.90
2019-05-19T15:27:01.992Z,97146.31
2019-05-19T15:29:29.241Z,97143.96
2019-05-19T15:31:56.480Z,97140.27
2019-05-19T15:34:24.027Z,97152.33
2019-05-19T15:36:51.513Z,97145.05
2019-05-19T15:39:19.387Z,97149.63
2019-05-19T15:41:47.042Z,97146.39
2019-05-19T15:44:14.638Z,97138.09
2019-05-19T15:46:41.884Z,97137.58
2019-05-19T15:49:09.499Z,97123.67
2019-05-19T15:51:37.917Z,97123.67
2019-05-19T15:54:05.827Z,97121.98
2019-05-19T15:56:33.101Z,97125.44
2019-05-19T15:59:00.985Z,97125.66
2019-05-19T16:01:28.853Z,97110.88
2019-05-19T16:03:57.082Z,97110.88
2019-05-19T16:06:25.569Z,97129.70
2019-05-19T16:08:52.855Z,97118.50
2019-05-19T16:11:20.148Z,97127.47
2019-05-19T16:16:21.184Z,97127.80
2019-05-19T16:18:48.627Z,97119.72
2019-05-19T16:21:16.026Z,97117.36
2019-05-19T16:23:43.261Z,97120.51
2019-05-19T16:26:10.481Z,97122.31
2019-05-19T16:28:37.705Z,97133.28
2019-05-19T16:31:05.225Z,97133.28
2019-05-19T16:33:32.768Z,97130.71
2019-05-19T16:36:00.588Z,97128.79
2019-05-19T16:38:28.152Z,97121.76
2019-05-19T16:40:56.057Z,97116.59
2019-05-19T16:43:23.698Z,97119.41
2019-05-19T16:45:51.445Z,97120.74
2019-05-19T16:48:18.713Z,97115.25
2019-05-19T16:50:45.976Z,97108.52
2019-05-19T16:53:13.277Z,97105.49
2019-05-19T16:55:40.968Z,97108.30
2019-05-19T16:58:20.628Z,97117.68
2019-05-19T17:00:38.343Z,97112.19
2019-05-19T17:03:05.771Z,97119.41
2019-05-19T17:05:33.731Z,97117.28
2019-05-19T17:08:00.968Z,97121.84
2019-05-19T17:10:28.261Z,97128.43
2019-05-19T17:12:56.615Z,97124.02
2019-05-19T17:15:24.402Z,97121.67
2019-05-19T17:17:51.762Z,97113.15
2019-05-19T17:20:19.088Z,97109.12
2019-05-19T17:22:46.973Z,97119.15
2019-05-19T17:25:14.611Z,97119.15
2019-05-19T17:27:41.905Z,97123.17
2019-05-19T17:30:10.287Z,97128.43
2019-05-19T17:32:37.781Z,97133.44
2019-05-19T17:37:31.992Z,97141.24
2019-05-19T17:39:59.782Z,97151.94
2019-05-19T17:43:31.017Z,97145.98
2019-05-19T17:45:58.288Z,97145.59
2019-05-19T17:48:26.767Z,97142.87
2019-05-19T17:50:54.509Z,97132.56
2019-05-19T17:53:22.285Z,97126.76
2019-05-19T17:55:49.709Z,97126.76
2019-05-19T17:58:19.242Z,97140.81
2019-05-19T18:00:46.448Z,97140.56
2019-05-19T18:03:14.433Z,97149.20
2019-05-19T18:05:41.960Z,97151.01
2019-05-19T18:08:09.258Z,97147.45
2019-05-19T18:10:53.517Z,97155.06
2019-05-19T18:13:21.717Z,97156.95
2019-05-19T18:15:49.558Z,97151.47
2019-05-19T18:18:16.798Z,97156.27
2019-05-19T18:20:46.960Z,97158.41
2019-05-19T18:23:13.700Z,97152.16
2019-05-19T18:25:40.988Z,97151.01
2019-05-19T18:28:08.391Z,97149.12
2019-05-19T18:30:35.756Z,97150.68
2019-05-19T18:33:03.112Z,97147.01
2019-05-19T18:35:30.354Z,97154.84
2019-05-19T18:37:57.960Z,97153.28
2019-05-19T18:40:26.356Z,97152.73
2019-05-19T18:42:55.900Z,97150.57
2019-05-19T18:45:23.727Z,97154.92
2019-05-19T18:47:51.312Z,97156.84
2019-05-19T18:50:19.694Z,97155.94
2019-05-19T18:52:47.384Z,97153.23
2019-05-19T18:55:15.169Z,97143.36
2019-05-19T18:57:42.969Z,97155.45
2019-05-19T19:00:10.407Z,97152.55
2019-05-19T19:02:38.772Z,97155.77
2019-05-19T19:05:06.854Z,97157.11
2019-05-19T19:07:49.904Z,97157.11
2019-05-19T19:10:18.178Z,97159.69
2019-05-19T19:12:45.913Z,97157.03
2019-05-19T19:15:13.262Z,97159.06
2019-05-19T19:17:40.592Z,97091.14
2019-05-19T19:20:08.289Z,97172.48
2019-05-19T19:22:35.839Z,97175.86
2019-05-19T19:25:04.535Z,97183.04
2019-05-19T19:27:32.087Z,97179.23
2019-05-19T19:30:03.541Z,97176.77
2019-05-19T19:32:29.218Z,97180.80
2019-05-19T19:34:56.815Z,97178.00
2019-05-19T19:37:24.387Z,97181.77
2019-05-19T19:39:51.758Z,97182.44
2019-05-19T19:42:20.014Z,97186.78
2019-05-19T19:44:47.875Z,97186.31
2019-05-19T19:47:16.438Z,97182.47
2019-05-19T19:49:43.781Z,97182.47
2019-05-19T19:52:11.037Z,97183.13
2019-05-19T19:54:38.283Z,97177.17
2019-05-19T19:57:05.772Z,97173.77
2019-05-19T19:59:33.024Z,97181.78
2019-05-19T20:02:00.552Z,97176.05
2019-05-19T20:04:28.021Z,97180.55
2019-05-19T20:06:55.589Z,97173.33
2019-05-19T20:12:02.051Z,97175.31
2019-05-19T20:14:29.643Z,97175.31
2019-05-19T20:16:57.025Z,97182.67
2019-05-19T20:19:24.714Z,97183.32
2019-05-19T20:21:52.049Z,97190.92
2019-05-19T20:24:19.461Z,97200.53
2019-05-19T20:26:47.029Z,97198.50
2019-05-19T20:29:14.563Z,97200.05
2019-05-19T20:31:42.137Z,97197.76
2019-05-19T20:34:09.397Z,97205.58
2019-05-19T20:39:18.029Z,97200.69
2019-05-19T20:41:45.580Z,97209.16
2019-05-19T20:44:13.642Z,97204.12
2019-05-19T20:46:41.593Z,97206.65
2019-05-19T20:49:09.129Z,97214.05
2019-05-19T20:51:36.395Z,97224.55
2019-05-19T20:54:04.040Z,97238.73
2019-05-19T20:56:31.400Z,97243.17
2019-05-19T20:58:58.974Z,97239.95
2019-05-19T21:01:26.460Z,97242.63
2019-05-19T21:03:53.784Z,97235.23
2019-05-19T21:06:21.570Z,97221.81
2019-05-19T21:08:49.321Z,97228.14
2019-05-19T21:11:16.540Z,97221.77
2019-05-19T21:13:44.333Z,97232.40
2019-05-19T21:16:11.806Z,97232.40
2019-05-19T21:18:39.360Z,97241.72
2019-05-19T21:21:06.923Z,97236.84
2019-05-19T21:23:34.380Z,97242.84
2019-05-19T21:26:01.586Z,97248.20
2019-05-19T21:28:29.188Z,97250.66
2019-05-19T21:31:05.320Z,97254.08
2019-05-19T21:33:26.558Z,97254.08
2019-05-19T21:37:40.193Z,97237.16
2019-05-19T21:40:08.740Z,97250.59
2019-05-19T21:42:36.013Z,97250.59
2019-05-19T21:45:03.857Z,97254.84
2019-05-19T21:47:31.157Z,97262.88
2019-05-19T21:49:59.335Z,97277.40
2019-05-19T21:52:26.840Z,97283.23
2019-05-19T21:54:54.383Z,97289.23
2019-05-19T21:57:21.598Z,97323.83
2019-05-19T21:59:49.164Z,97323.83
2019-05-19T22:02:16.486Z,97342.59
2019-05-19T22:04:43.756Z,97346.61
2019-05-19T22:07:27.835Z,97345.04
2019-05-19T22:09:55.303Z,97341.66
2019-05-19T22:12:22.659Z,97331.34
2019-05-19T22:14:50.023Z,97322.11
2019-05-19T22:17:17.527Z,97277.67
2019-05-19T22:19:44.795Z,97290.22
2019-05-19T22:22:13.353Z,97300.45
2019-05-19T22:24:40.936Z,97300.45
2019-05-19T22:27:08.369Z,97298.89
2019-05-19T22:29:36.020Z,97295.73
2019-05-19T22:32:03.337Z,97284.88
2019-05-19T22:34:30.567Z,97274.29
2019-05-19T22:36:57.809Z,97282.33
2019-05-19T22:39:25.122Z,97267.61
2019-05-19T22:41:52.449Z,97267.61
2019-05-19T22:44:20.401Z,97265.95
2019-05-19T22:46:47.897Z,97267.07
2019-05-19T22:49:15.117Z,97266.12
2019-05-19T22:51:42.354Z,97270.16
2019-05-19T22:54:09.600Z,97265.02
2019-05-19T22:56:37.173Z,97263.20
2019-05-19T22:59:17.549Z,97261.33
2019-05-19T23:02:02.570Z,97253.19
2019-05-19T23:04:31.346Z,97253.38
2019-05-19T23:06:59.988Z,97243.52
2019-05-19T23:09:28.478Z,97237.62
2019-05-19T23:11:57.636Z,97227.98
2019-05-19T23:14:26.702Z,97231.88
2019-05-19T23:16:56.561Z,97237.33
2019-05-19T23:19:25.763Z,97240.00
2019-05-19T23:21:54.940Z,97230.95
2019-05-19T23:24:24.295Z,97240.06
2019-05-19T23:26:53.416Z,97262.06
2019-05-19T23:29:22.944Z,97255.77
2019-05-19T23:32:06.348Z,97258.80
2019-05-19T23:34:25.084Z,97250.45
2019-05-19T23:36:54.287Z,97260.00
2019-05-19T23:39:23.853Z,97263.76
2019-05-19T23:41:53.005Z,97256.13
2019-05-19T23:44:22.133Z,97252.82
2019-05-19T23:46:51.341Z,97253.53
2019-05-19T23:49:20.617Z,97249.83
2019-05-19T23:51:49.887Z,97255.67
2019-05-19T23:54:19.007Z,97261.48
2019-05-19T23:56:48.847Z,97264.42
2019-05-19T23:59:17.982Z,97260.64
